Wenatchee, WA

2:00 PM PST on February 14, 2016 (GMT -0800)
3rd & Princeton | | Change Station
CLOSE
Current Station
Personal Weather Station
Location: Wenatchee, WA
Elevation: 755 ft
Nearby Weather Stations

Elev 755 ft 47.43 °N, 120.33 °W | Updated 28 seconds ago

Mostly Cloudy
Mostly Cloudy
48.9 °F
Feels Like 47 °F
N
4.2
Wind Variable Wind from North

Today
High -- | Low -- °F
--% Chance of Precip.
Yesterday
High -- | Low -- °F
Precip. -- in
Pressure 30.09 in
Visibility 10.0 miles
Clouds Scattered Clouds 4600 ft
Mostly Cloudy 9500 ft
Windchill 47 °F
Dew Point 40 °F
Humidity 70%
Rainfall 0.00 in
Snow Depth Not available.
7:08 AM 5:22 PM
Waxing Crescent, 45% visible
METAR KEAT 142155Z AUTO 10004KT 10SM SCT046 BKN095 07/02 A3007 RMK AO2 SLP190 T00670017
Pressure 30.09 in
Visibility 10.0 miles
Clouds Scattered Clouds 4600 ft
Mostly Cloudy 9500 ft
Windchill 47 °F
Dew Point 40 °F
Humidity 70%
Rainfall 0.00 in
Snow Depth Not available.
7:08 AM 5:22 PM
Waxing Crescent, 45% visible
METAR KEAT 142155Z AUTO 10004KT 10SM SCT046 BKN095 07/02 A3007 RMK AO2 SLP190 T00670017

10-Day Weather Forecast

Almanac

Astronomy

Feb. 14, 2016 Rise Set
Actual Time
Civil Twilight
Nautical Twilight
Astronomical Twilight
Moon
Length of Visible Light
Length of Day
Tomorrow will be .
, % of the Moon is Illuminated

Today's Extremes

State Highs State Lows

Community

WunderPhotos

Upload Photos

1,892,890 photos uploaded!

WunderBlog® & News

Nearby

Air Quality

  Air Quality AQ Index Pollutant
Not available.

Snow Depth

Station Depth Elevation

Earthquake Activity

City Distance Mag. Time & Date
Minimum magnitude displayed is 2.5.

Coastal Water Temperatures

Place Temperature

Stations

Nearby Weather Stations

Station Location Temp. Windchill Dew Point Humidity Wind Precip. Elev Updated Type
                   

Watches & Warnings

There are currently no watches in effect.